Terminal Aerodrome Forecast
Issued by NWS Cleveland, OH

Home | Current Version | Previous Version | Text Only | Print | Product List | Glossary On
Versions: 1 2 3 4 5 6 7 8 9 10 11 12 13 14 15 16 17 18 19 20 21 22 23 24
349
FTUS41 KCLE 272328
TAFCAK
TAF
KCAK 272328Z 2800/2824 05006KT P6SM BKN060
     FM280200 VRB03KT P6SM SCT120
     FM280800 VRB03KT P6SM BKN100
     FM281400 16005KT P6SM BKN025
     FM281600 17006KT P6SM OVC040
     FM281800 19006KT 6SM -SHRA VCTS OVC035CB
     FM282300 19005KT 6SM -SHRA VCTS OVC025CB=

USA.gov is the U.S. government's official web portal to all federal, state and local government web resources and services.